Startpagina
METAR-TAF:

METAR-TAF

Vliegvelden :

Florennes, België

Vliegbasis Florennes

breedte: 50-14N, lengte: 004-39E, hoogte: 279 m

Actueel weer

Dit bericht is 33 minuten geleden gemaakt, om 09:55 UTC
Wind 7 kt uit het zuiden
Temperatuur 14°C
Vochtigheid 72%
Druk 1021 hPa
Zicht 10 km of meer
Weinig wolken op 10000 ft
Gebroken wolken op 27000 ft

METAR: EBFS 210955Z 17007KT 9999 FEW100 BKN270 14/09 Q1021 BLU BLU

Tijdstip: 12:28 (10:28 UTC)

Verwachting

Dit bericht is 1 uur en het 47 minuten geleden gemaakt, om 08:41 UTC
Verwachting geldig van 21 om 10 UTC tot 21 om 19 UTC
Wind 6 kt uit het zuiden
Zicht 10 km of meer
Weinig wolken op 10000 ft
Verspreide wolken op 25000 ft

TAF: EBFS 210841Z 2110/2119 17006KT 9999 FEW100 SCT250

Waarnemingen en weersverwachtingen van meer dan 4000 vliegvelden (METAR en TAF).

De beschikbare stations zijn de gele en rode punten op de kaart.

Ga met uw muis naar het station om de naam te zien.

Klik dan om waarnemingen en weersverwachtingen te zien.

kaart wijzigen: klik op de groene knoppen met een zwart kruis om in te zoomen, op de groene knop met een streepje om uit te zoomen of op de groene pijlen voor aangrenzende kaarten.


METAR-TAF: